createdAt,value
2022-12-24T00:00:47.130Z,10.79
2022-12-24T00:05:48.762Z,10.80
2022-12-24T00:10:52.180Z,10.81
2022-12-24T00:15:53.807Z,10.97
2022-12-24T00:20:55.469Z,11.07
2022-12-24T00:25:57.072Z,11.08
2022-12-24T00:30:59.849Z,11.10
2022-12-24T00:36:01.562Z,11.13
2022-12-24T00:41:05.704Z,11.03
2022-12-24T00:46:07.347Z,10.97
2022-12-24T00:51:09.004Z,10.92
2022-12-24T00:56:10.650Z,10.93
2022-12-24T01:01:12.681Z,10.98
2022-12-24T01:06:18.264Z,10.89
2022-12-24T01:11:19.959Z,10.91
2022-12-24T01:16:21.820Z,10.95
2022-12-24T01:21:23.570Z,11.04
2022-12-24T01:26:25.225Z,11.09
2022-12-24T01:31:26.929Z,11.07
2022-12-24T01:36:28.588Z,11.11
2022-12-24T01:41:50.169Z,11.08
2022-12-24T01:47:04.802Z,11.13
2022-12-24T01:52:09.664Z,11.06
2022-12-24T01:57:18.427Z,11.13
2022-12-24T02:02:20.551Z,11.12
2022-12-24T02:07:23.084Z,11.13
2022-12-24T02:12:26.469Z,11.07
2022-12-24T02:17:43.372Z,11.10
2022-12-24T02:22:50.723Z,11.04
2022-12-24T02:27:58.272Z,11.06
2022-12-24T02:33:02.668Z,11.02
2022-12-24T02:38:07.587Z,11.06
2022-12-24T02:43:20.282Z,11.11
2022-12-24T02:48:23.729Z,11.09
2022-12-24T02:53:25.412Z,11.11
2022-12-24T02:58:42.128Z,11.13
2022-12-24T03:03:46.670Z,11.07
2022-12-24T03:08:55.094Z,11.05
2022-12-24T03:13:58.853Z,11.07
2022-12-24T03:19:01.098Z,11.10
2022-12-24T03:24:02.883Z,11.05
2022-12-24T03:29:09.100Z,11.10
2022-12-24T03:34:11.782Z,11.12
2022-12-24T03:39:13.568Z,11.06
2022-12-24T03:44:15.281Z,11.11
2022-12-24T03:49:16.934Z,11.10
2022-12-24T03:54:18.557Z,11.13
2022-12-24T03:59:20.195Z,11.10
2022-12-24T04:04:21.799Z,11.06
2022-12-24T04:09:23.443Z,11.05
2022-12-24T04:14:25.280Z,11.12
2022-12-24T04:19:26.969Z,11.07
2022-12-24T04:24:28.638Z,11.10
2022-12-24T04:29:30.267Z,11.18
2022-12-24T04:34:31.999Z,11.15
2022-12-24T04:39:33.643Z,11.18
2022-12-24T04:44:35.266Z,11.18
2022-12-24T04:49:36.835Z,11.22
2022-12-24T04:54:38.476Z,11.24
2022-12-24T04:59:40.114Z,11.25
2022-12-24T05:04:41.857Z,11.25
2022-12-24T05:09:43.438Z,11.30
2022-12-24T05:14:45.075Z,11.22
2022-12-24T05:19:46.699Z,11.30
2022-12-24T05:25:06.572Z,11.22
2022-12-24T05:30:08.934Z,11.29
2022-12-24T05:35:10.611Z,11.27
2022-12-24T05:40:12.303Z,11.21
2022-12-24T05:45:13.970Z,11.15
2022-12-24T05:50:15.617Z,11.07
2022-12-24T05:55:17.283Z,11.17
2022-12-24T06:00:19.332Z,11.09
2022-12-24T06:05:21.153Z,11.12
2022-12-24T06:10:23.275Z,11.09
2022-12-24T06:15:24.943Z,11.10
2022-12-24T06:20:26.572Z,11.05
2022-12-24T06:25:28.229Z,11.03
2022-12-24T06:30:29.812Z,10.98
2022-12-24T06:35:32.437Z,11.05
2022-12-24T06:40:34.040Z,11.00
2022-12-24T06:45:35.665Z,10.99
2022-12-24T06:50:37.271Z,11.05
2022-12-24T06:55:39.808Z,10.97
2022-12-24T07:00:41.446Z,10.99
2022-12-24T07:05:43.107Z,11.08
2022-12-24T07:10:49.067Z,11.07
2022-12-24T07:16:03.385Z,11.07
2022-12-24T07:21:05.623Z,11.11
2022-12-24T07:26:07.527Z,11.00
2022-12-24T07:31:09.250Z,11.07
2022-12-24T07:36:16.095Z,11.03
2022-12-24T07:41:17.689Z,11.07
2022-12-24T07:46:19.357Z,11.06
2022-12-24T07:51:21.054Z,11.05
2022-12-24T07:56:22.782Z,11.09
2022-12-24T08:01:24.479Z,11.01
2022-12-24T08:06:26.219Z,11.03
2022-12-24T08:11:27.826Z,11.04
2022-12-24T08:16:29.529Z,11.10
2022-12-24T08:21:31.195Z,11.09
2022-12-24T08:26:32.831Z,11.13
2022-12-24T08:31:37.545Z,11.01
2022-12-24T08:36:39.250Z,11.10
2022-12-24T08:41:40.867Z,11.05
2022-12-24T08:46:42.635Z,11.08
2022-12-24T08:51:44.310Z,11.13
2022-12-24T08:56:45.936Z,11.04
2022-12-24T09:01:47.840Z,11.22
2022-12-24T09:06:49.687Z,11.25
2022-12-24T09:11:51.416Z,11.19
2022-12-24T09:16:53.094Z,11.28
2022-12-24T09:21:55.194Z,11.30
2022-12-24T09:26:58.307Z,11.43
2022-12-24T09:32:00.072Z,11.57
2022-12-24T09:37:03.105Z,11.55
2022-12-24T09:42:28.560Z,11.49
2022-12-24T09:47:40.111Z,11.59
2022-12-24T09:52:44.163Z,11.57
2022-12-24T09:57:47.712Z,11.63
2022-12-24T10:02:50.028Z,11.77
2022-12-24T10:08:09.722Z,11.62
2022-12-24T10:13:20.504Z,11.54
2022-12-24T10:18:34.920Z,11.45
2022-12-24T10:23:54.875Z,11.48
2022-12-24T10:28:57.300Z,11.43
2022-12-24T10:34:03.545Z,11.44
2022-12-24T10:39:05.248Z,11.41
2022-12-24T10:44:12.132Z,11.49
2022-12-24T10:49:20.179Z,11.68
2022-12-24T10:54:27.701Z,11.54
2022-12-24T10:59:30.972Z,11.74
2022-12-24T11:04:33.260Z,11.84
2022-12-24T11:09:37.956Z,11.85
2022-12-24T11:14:40.143Z,11.85
2022-12-24T11:19:48.793Z,11.80
2022-12-24T11:25:19.221Z,11.83
2022-12-24T11:30:31.769Z,11.89
2022-12-24T11:35:34.554Z,11.90
2022-12-24T11:40:42.501Z,11.97
2022-12-24T11:45:55.831Z,11.88
2022-12-24T11:51:01.307Z,11.90
2022-12-24T11:56:07.251Z,11.98
2022-12-24T12:01:25.120Z,11.86
2022-12-24T12:06:46.885Z,11.99
2022-12-24T12:11:52.835Z,11.98
2022-12-24T12:17:12.947Z,11.97
2022-12-24T12:23:02.732Z,11.78
2022-12-24T12:28:16.487Z,11.93
2022-12-24T12:33:31.650Z,11.88
2022-12-24T12:38:33.288Z,11.96
2022-12-24T12:44:02.296Z,11.95
2022-12-24T12:49:28.236Z,11.94
2022-12-24T12:54:43.938Z,11.87
2022-12-24T13:00:06.552Z,11.89
2022-12-24T13:05:25.745Z,11.91
2022-12-24T13:10:52.118Z,11.86
2022-12-24T13:16:09.010Z,11.88
2022-12-24T13:21:18.867Z,11.92
2022-12-24T13:26:20.580Z,12.07
2022-12-24T13:31:24.656Z,12.05
2022-12-24T13:37:03.942Z,12.11
2022-12-24T13:42:06.932Z,12.07
2022-12-24T13:47:14.546Z,12.14
2022-12-24T13:52:19.773Z,12.14
2022-12-24T13:57:40.049Z,12.17
2022-12-24T14:02:55.623Z,12.08
2022-12-24T14:07:58.859Z,12.13
2022-12-24T14:13:00.708Z,12.02
2022-12-24T14:18:02.490Z,12.02
2022-12-24T14:23:06.459Z,12.03
2022-12-24T14:28:17.347Z,11.98
2022-12-24T14:33:30.016Z,11.90
2022-12-24T14:38:32.443Z,11.87
2022-12-24T14:44:07.160Z,11.88
2022-12-24T14:49:38.425Z,11.84
2022-12-24T14:54:44.280Z,11.83
2022-12-24T14:59:50.710Z,11.82
2022-12-24T15:05:16.972Z,11.72
2022-12-24T15:10:31.459Z,11.71
2022-12-24T15:15:34.226Z,11.71
2022-12-24T15:20:36.477Z,11.71
2022-12-24T15:25:38.181Z,11.62
2022-12-24T15:30:40.282Z,11.60
2022-12-24T15:35:55.736Z,11.66
2022-12-24T15:40:58.263Z,11.60
2022-12-24T15:46:00.501Z,11.50
2022-12-24T15:51:03.106Z,11.50
2022-12-24T15:56:09.179Z,11.50
2022-12-24T16:01:13.898Z,11.45
2022-12-24T16:06:16.024Z,11.51
2022-12-24T16:11:19.575Z,11.15
2022-12-24T16:16:35.696Z,10.98
2022-12-24T16:21:41.510Z,10.87
2022-12-24T16:26:43.177Z,10.86
2022-12-24T16:31:53.240Z,10.84
2022-12-24T16:36:55.821Z,10.77
2022-12-24T16:42:18.131Z,10.78
2022-12-24T16:47:22.832Z,10.77
2022-12-24T16:52:28.503Z,10.82
2022-12-24T16:57:33.822Z,10.73
2022-12-24T17:02:35.702Z,10.85
2022-12-24T17:07:43.160Z,10.60
2022-12-24T17:12:45.663Z,10.65
2022-12-24T17:17:47.401Z,10.47
2022-12-24T17:22:49.553Z,10.27
2022-12-24T17:27:51.153Z,10.38
2022-12-24T17:32:52.761Z,10.13
2022-12-24T17:37:54.371Z,10.13
2022-12-24T17:42:56.014Z,10.15
2022-12-24T17:47:57.701Z,10.14
2022-12-24T17:52:59.437Z,10.06
2022-12-24T17:58:01.306Z,10.08
2022-12-24T18:03:03.074Z,9.90
2022-12-24T18:08:04.938Z,10.01
2022-12-24T18:13:07.177Z,9.79
2022-12-24T18:18:10.213Z,9.87
2022-12-24T18:23:12.078Z,9.78
2022-12-24T18:28:13.864Z,9.56
2022-12-24T18:33:15.608Z,9.60
2022-12-24T18:38:17.286Z,9.61
2022-12-24T18:43:19.325Z,9.37
2022-12-24T18:48:20.989Z,9.36
2022-12-24T18:53:22.835Z,9.42
2022-12-24T18:58:24.540Z,9.32
2022-12-24T19:03:26.198Z,9.30
2022-12-24T19:08:56.552Z,9.09
2022-12-24T19:13:49.891Z,9.14
2022-12-24T19:18:51.642Z,9.04
2022-12-24T19:23:53.260Z,9.13
2022-12-24T19:28:54.953Z,9.21
2022-12-24T19:33:57.011Z,9.19
2022-12-24T19:38:58.843Z,9.10
2022-12-24T19:44:01.612Z,8.97
2022-12-24T19:49:06.519Z,9.11
2022-12-24T19:54:14.883Z,9.16
2022-12-24T19:59:20.161Z,9.27
2022-12-24T20:04:22.164Z,9.11
2022-12-24T20:09:23.806Z,9.37
2022-12-24T20:14:25.409Z,9.52
2022-12-24T20:19:26.981Z,9.56
2022-12-24T20:24:28.695Z,9.63
2022-12-24T20:29:30.355Z,9.64
2022-12-24T20:34:32.013Z,9.41
2022-12-24T20:39:33.724Z,9.52
2022-12-24T20:44:35.319Z,9.57
2022-12-24T20:49:36.958Z,9.37
2022-12-24T20:54:38.549Z,9.43
2022-12-24T20:59:42.068Z,9.45
2022-12-24T21:04:45.136Z,9.47
2022-12-24T21:09:46.772Z,9.47
2022-12-24T21:14:48.416Z,9.41
2022-12-24T21:19:50.070Z,9.33
2022-12-24T21:24:53.972Z,9.43
2022-12-24T21:29:56.127Z,9.38
2022-12-24T21:34:57.716Z,9.31
2022-12-24T21:39:59.345Z,9.21
2022-12-24T21:45:02.097Z,9.22
2022-12-24T21:50:26.830Z,9.15
2022-12-24T21:55:33.345Z,9.17
2022-12-24T22:00:35.394Z,9.13
2022-12-24T22:05:37.048Z,9.13
2022-12-24T22:10:57.665Z,8.95
2022-12-24T22:15:59.357Z,8.88
2022-12-24T22:21:02.461Z,9.00
2022-12-24T22:26:14.591Z,8.88
2022-12-24T22:31:21.651Z,8.86
2022-12-24T22:36:23.457Z,8.85
2022-12-24T22:41:25.246Z,8.74
2022-12-24T22:46:26.875Z,8.75
2022-12-24T22:51:28.499Z,8.73
2022-12-24T22:56:32.028Z,8.51
2022-12-24T23:01:39.546Z,8.62
2022-12-24T23:06:41.607Z,8.54
2022-12-24T23:11:44.141Z,8.41
2022-12-24T23:16:45.751Z,8.33
2022-12-24T23:21:47.482Z,8.22
2022-12-24T23:26:50.170Z,8.15
2022-12-24T23:31:51.940Z,8.04
2022-12-24T23:36:53.608Z,8.15
2022-12-24T23:41:55.318Z,7.99
2022-12-24T23:46:56.959Z,8.04
2022-12-24T23:51:58.604Z,7.95
2022-12-24T23:57:00.290Z,7.83
